sensor_id;sensor_type;location;lat;lon;timestamp;pressure;altitude;pressure_sealevel;temperature;humidity
74310;BME280;62722;51.142;17.052;2023-05-19T00:00:06;101256.97;;;10.69;78.43
74310;BME280;62722;51.142;17.052;2023-05-19T00:02:55;101258.84;;;10.67;78.69
74310;BME280;62722;51.142;17.052;2023-05-19T00:05:23;101259.84;;;10.64;78.92
74310;BME280;62722;51.142;17.052;2023-05-19T00:07:51;101259.28;;;10.58;79.21
74310;BME280;62722;51.142;17.052;2023-05-19T00:10:19;101265.09;;;10.47;79.62
74310;BME280;62722;51.142;17.052;2023-05-19T00:12:46;101261.00;;;10.42;79.88
74310;BME280;62722;51.142;17.052;2023-05-19T00:15:15;101262.06;;;10.38;79.88
74310;BME280;62722;51.142;17.052;2023-05-19T00:17:42;101266.41;;;10.39;80.20
74310;BME280;62722;51.142;17.052;2023-05-19T00:20:13;101269.13;;;10.37;80.14
74310;BME280;62722;51.142;17.052;2023-05-19T00:22:40;101263.06;;;10.35;80.12
74310;BME280;62722;51.142;17.052;2023-05-19T00:25:10;101264.13;;;10.31;80.45
74310;BME280;62722;51.142;17.052;2023-05-19T00:27:37;101262.59;;;10.27;80.79
74310;BME280;62722;51.142;17.052;2023-05-19T00:30:06;101260.25;;;10.21;81.11
74310;BME280;62722;51.142;17.052;2023-05-19T00:32:34;101258.53;;;10.20;81.16
74310;BME280;62722;51.142;17.052;2023-05-19T00:35:01;101260.41;;;10.18;81.36
74310;BME280;62722;51.142;17.052;2023-05-19T00:37:30;101264.06;;;10.14;81.27
74310;BME280;62722;51.142;17.052;2023-05-19T00:39:57;101262.50;;;10.10;81.78
74310;BME280;62722;51.142;17.052;2023-05-19T00:42:24;101259.25;;;10.05;82.02
74310;BME280;62722;51.142;17.052;2023-05-19T00:44:52;101262.81;;;10.04;82.11
74310;BME280;62722;51.142;17.052;2023-05-19T00:47:19;101257.53;;;10.04;82.20
74310;BME280;62722;51.142;17.052;2023-05-19T00:49:47;101255.16;;;9.98;82.20
74310;BME280;62722;51.142;17.052;2023-05-19T00:52:14;101255.25;;;9.96;82.45
74310;BME280;62722;51.142;17.052;2023-05-19T00:54:43;101257.81;;;9.98;82.56
74310;BME280;62722;51.142;17.052;2023-05-19T00:57:11;101261.09;;;10.03;82.84
74310;BME280;62722;51.142;17.052;2023-05-19T00:59:39;101261.53;;;10.12;83.32
74310;BME280;62722;51.142;17.052;2023-05-19T01:02:07;101269.00;;;10.21;82.98
74310;BME280;62722;51.142;17.052;2023-05-19T01:04:35;101270.38;;;10.30;82.70
74310;BME280;62722;51.142;17.052;2023-05-19T01:07:04;101263.22;;;10.32;82.06
74310;BME280;62722;51.142;17.052;2023-05-19T01:09:32;101256.81;;;10.38;82.37
74310;BME280;62722;51.142;17.052;2023-05-19T01:12:00;101252.28;;;10.40;82.56
74310;BME280;62722;51.142;17.052;2023-05-19T01:14:28;101255.56;;;10.45;81.94
74310;BME280;62722;51.142;17.052;2023-05-19T01:17:00;101260.00;;;10.44;82.02
74310;BME280;62722;51.142;17.052;2023-05-19T01:19:51;101260.63;;;10.49;80.85
74310;BME280;62722;51.142;17.052;2023-05-19T01:22:35;101261.22;;;10.37;81.52
74310;BME280;62722;51.142;17.052;2023-05-19T01:25:35;101260.72;;;10.29;81.65
74310;BME280;62722;51.142;17.052;2023-05-19T01:28:37;101263.53;;;10.26;81.90
74310;BME280;62722;51.142;17.052;2023-05-19T01:31:12;101264.06;;;10.14;82.25
74310;BME280;62722;51.142;17.052;2023-05-19T01:33:42;101259.97;;;10.08;82.33
74310;BME280;62722;51.142;17.052;2023-05-19T01:36:11;101264.66;;;10.02;82.90
74310;BME280;62722;51.142;17.052;2023-05-19T01:38:39;101268.34;;;9.98;82.92
74310;BME280;62722;51.142;17.052;2023-05-19T01:41:10;101260.59;;;9.95;83.40
74310;BME280;62722;51.142;17.052;2023-05-19T01:43:37;101262.31;;;9.96;83.04
74310;BME280;62722;51.142;17.052;2023-05-19T01:46:06;101270.38;;;9.93;83.26
74310;BME280;62722;51.142;17.052;2023-05-19T01:48:34;101269.50;;;9.92;83.09
74310;BME280;62722;51.142;17.052;2023-05-19T01:51:03;101265.25;;;9.90;83.50
74310;BME280;62722;51.142;17.052;2023-05-19T01:53:30;101268.81;;;9.89;83.42
74310;BME280;62722;51.142;17.052;2023-05-19T01:55:58;101264.59;;;9.85;83.45
74310;BME280;62722;51.142;17.052;2023-05-19T01:58:30;101263.81;;;9.83;83.62
74310;BME280;62722;51.142;17.052;2023-05-19T02:01:08;101265.94;;;9.74;83.90
74310;BME280;62722;51.142;17.052;2023-05-19T02:03:48;101253.84;;;9.70;84.24
74310;BME280;62722;51.142;17.052;2023-05-19T02:06:29;101254.69;;;9.71;84.62
74310;BME280;62722;51.142;17.052;2023-05-19T02:09:02;101251.97;;;9.72;84.66
74310;BME280;62722;51.142;17.052;2023-05-19T02:11:35;101252.78;;;9.74;84.25
74310;BME280;62722;51.142;17.052;2023-05-19T02:14:12;101255.47;;;9.73;84.23
74310;BME280;62722;51.142;17.052;2023-05-19T02:16:44;101254.47;;;9.75;84.20
74310;BME280;62722;51.142;17.052;2023-05-19T02:19:21;101259.69;;;9.77;84.40
74310;BME280;62722;51.142;17.052;2023-05-19T02:21:49;101256.97;;;9.78;84.48
74310;BME280;62722;51.142;17.052;2023-05-19T02:24:16;101265.16;;;9.91;84.43
74310;BME280;62722;51.142;17.052;2023-05-19T02:26:45;101259.47;;;10.00;84.52
74310;BME280;62722;51.142;17.052;2023-05-19T02:29:13;101259.88;;;10.10;84.09
74310;BME280;62722;51.142;17.052;2023-05-19T02:31:40;101248.56;;;10.08;84.01
74310;BME280;62722;51.142;17.052;2023-05-19T02:34:07;101241.41;;;10.10;83.44
74310;BME280;62722;51.142;17.052;2023-05-19T02:36:38;101250.84;;;10.15;82.98
74310;BME280;62722;51.142;17.052;2023-05-19T02:39:07;101250.00;;;10.15;83.36
74310;BME280;62722;51.142;17.052;2023-05-19T02:41:36;101250.59;;;10.20;83.36
74310;BME280;62722;51.142;17.052;2023-05-19T02:44:03;101246.97;;;10.04;83.62
74310;BME280;62722;51.142;17.052;2023-05-19T02:46:31;101251.91;;;9.93;84.39
74310;BME280;62722;51.142;17.052;2023-05-19T02:48:58;101248.00;;;9.83;84.83
74310;BME280;62722;51.142;17.052;2023-05-19T02:51:26;101243.16;;;9.73;85.52
74310;BME280;62722;51.142;17.052;2023-05-19T02:53:54;101243.00;;;9.76;85.36
74310;BME280;62722;51.142;17.052;2023-05-19T02:56:22;101247.00;;;9.85;85.22
74310;BME280;62722;51.142;17.052;2023-05-19T02:58:49;101243.00;;;9.76;85.90
74310;BME280;62722;51.142;17.052;2023-05-19T03:01:17;101240.88;;;9.85;85.44
74310;BME280;62722;51.142;17.052;2023-05-19T03:03:45;101240.56;;;9.91;85.22
74310;BME280;62722;51.142;17.052;2023-05-19T03:06:13;101242.94;;;9.97;85.40
74310;BME280;62722;51.142;17.052;2023-05-19T03:08:42;101242.47;;;10.06;84.96
74310;BME280;62722;51.142;17.052;2023-05-19T03:11:11;101244.56;;;9.99;85.02
74310;BME280;62722;51.142;17.052;2023-05-19T03:13:40;101244.28;;;9.87;85.56
74310;BME280;62722;51.142;17.052;2023-05-19T03:16:07;101239.44;;;9.77;85.77
74310;BME280;62722;51.142;17.052;2023-05-19T03:18:34;101238.03;;;9.70;86.51
74310;BME280;62722;51.142;17.052;2023-05-19T03:21:02;101248.72;;;9.67;86.41
74310;BME280;62722;51.142;17.052;2023-05-19T03:23:29;101241.88;;;9.63;86.73
74310;BME280;62722;51.142;17.052;2023-05-19T03:25:57;101242.78;;;9.62;86.77
74310;BME280;62722;51.142;17.052;2023-05-19T03:28:25;101242.59;;;9.67;87.24
74310;BME280;62722;51.142;17.052;2023-05-19T03:30:53;101244.00;;;9.74;86.95
74310;BME280;62722;51.142;17.052;2023-05-19T03:33:20;101244.22;;;9.69;86.40
74310;BME280;62722;51.142;17.052;2023-05-19T03:35:48;101243.81;;;9.78;86.83
74310;BME280;62722;51.142;17.052;2023-05-19T03:38:17;101244.72;;;9.77;86.52
74310;BME280;62722;51.142;17.052;2023-05-19T03:40:45;101242.84;;;9.79;86.42
74310;BME280;62722;51.142;17.052;2023-05-19T03:43:12;101239.59;;;9.74;86.54
74310;BME280;62722;51.142;17.052;2023-05-19T03:45:42;101241.72;;;9.66;86.98
74310;BME280;62722;51.142;17.052;2023-05-19T03:48:09;101236.50;;;9.65;87.45
74310;BME280;62722;51.142;17.052;2023-05-19T03:50:37;101241.66;;;9.68;87.81
74310;BME280;62722;51.142;17.052;2023-05-19T03:53:04;101238.16;;;9.67;87.56
74310;BME280;62722;51.142;17.052;2023-05-19T03:55:32;101242.13;;;9.76;87.54
74310;BME280;62722;51.142;17.052;2023-05-19T03:58:02;101244.22;;;9.69;87.80
74310;BME280;62722;51.142;17.052;2023-05-19T04:00:29;101238.53;;;9.60;87.97
74310;BME280;62722;51.142;17.052;2023-05-19T04:03:01;101247.28;;;9.60;88.18
74310;BME280;62722;51.142;17.052;2023-05-19T04:05:28;101248.06;;;9.62;88.64
74310;BME280;62722;51.142;17.052;2023-05-19T04:07:56;101256.78;;;9.64;88.60
74310;BME280;62722;51.142;17.052;2023-05-19T04:10:23;101254.91;;;9.66;88.18
74310;BME280;62722;51.142;17.052;2023-05-19T04:12:50;101248.72;;;9.67;88.20
74310;BME280;62722;51.142;17.052;2023-05-19T04:15:18;101248.06;;;9.62;88.03
74310;BME280;62722;51.142;17.052;2023-05-19T04:17:45;101262.31;;;9.58;88.31
74310;BME280;62722;51.142;17.052;2023-05-19T04:20:14;101261.53;;;9.56;87.98
74310;BME280;62722;51.142;17.052;2023-05-19T04:22:41;101261.25;;;9.62;88.53
74310;BME280;62722;51.142;17.052;2023-05-19T04:25:09;101254.75;;;9.69;88.13
74310;BME280;62722;51.142;17.052;2023-05-19T04:27:36;101260.94;;;9.68;88.04
74310;BME280;62722;51.142;17.052;2023-05-19T04:30:05;101254.00;;;9.67;87.64
74310;BME280;62722;51.142;17.052;2023-05-19T04:32:32;101254.56;;;9.74;88.27
74310;BME280;62722;51.142;17.052;2023-05-19T04:35:02;101254.41;;;9.77;87.53
74310;BME280;62722;51.142;17.052;2023-05-19T04:37:31;101248.41;;;9.73;87.00
74310;BME280;62722;51.142;17.052;2023-05-19T04:39:58;101258.03;;;9.74;86.92
74310;BME280;62722;51.142;17.052;2023-05-19T04:42:25;101253.41;;;9.79;87.03
74310;BME280;62722;51.142;17.052;2023-05-19T04:44:55;101248.63;;;9.88;86.77
74310;BME280;62722;51.142;17.052;2023-05-19T04:47:22;101248.06;;;10.00;86.46
74310;BME280;62722;51.142;17.052;2023-05-19T04:49:52;101245.97;;;10.06;85.21
74310;BME280;62722;51.142;17.052;2023-05-19T04:52:20;101250.22;;;10.09;84.82
74310;BME280;62722;51.142;17.052;2023-05-19T04:54:50;101261.53;;;10.12;84.44
74310;BME280;62722;51.142;17.052;2023-05-19T04:57:17;101262.50;;;10.10;84.07
74310;BME280;62722;51.142;17.052;2023-05-19T04:59:45;101264.97;;;10.14;83.73
74310;BME280;62722;51.142;17.052;2023-05-19T05:02:15;101262.03;;;10.20;83.42
74310;BME280;62722;51.142;17.052;2023-05-19T05:04:42;101260.41;;;10.18;83.56
74310;BME280;62722;51.142;17.052;2023-05-19T05:07:11;101262.31;;;10.14;82.72
74310;BME280;62722;51.142;17.052;2023-05-19T05:09:38;101264.91;;;10.16;83.50
74310;BME280;62722;51.142;17.052;2023-05-19T05:12:09;101257.94;;;10.13;83.43
74310;BME280;62722;51.142;17.052;2023-05-19T05:14:37;101267.38;;;10.19;83.35
74310;BME280;62722;51.142;17.052;2023-05-19T05:17:05;101266.81;;;10.12;82.84
74310;BME280;62722;51.142;17.052;2023-05-19T05:19:35;101267.63;;;10.13;83.04
74310;BME280;62722;51.142;17.052;2023-05-19T05:22:02;101269.06;;;10.20;83.40
74310;BME280;62722;51.142;17.052;2023-05-19T05:24:31;101269.81;;;10.23;82.81
74310;BME280;62722;51.142;17.052;2023-05-19T05:26:59;101270.63;;;10.24;82.15
74310;BME280;62722;51.142;17.052;2023-05-19T05:29:28;101279.78;;;10.17;82.18
74310;BME280;62722;51.142;17.052;2023-05-19T05:31:55;101269.50;;;10.11;82.78
74310;BME280;62722;51.142;17.052;2023-05-19T05:34:23;101263.22;;;10.13;82.92
74310;BME280;62722;51.142;17.052;2023-05-19T05:36:50;101258.53;;;10.20;83.23
74310;BME280;62722;51.142;17.052;2023-05-19T05:39:17;101272.22;;;10.28;83.16
74310;BME280;62722;51.142;17.052;2023-05-19T05:41:44;101260.50;;;10.34;82.51
74310;BME280;62722;51.142;17.052;2023-05-19T05:44:12;101260.38;;;10.37;82.14
74310;BME280;62722;51.142;17.052;2023-05-19T05:46:41;101262.94;;;10.38;82.15
74310;BME280;62722;51.142;17.052;2023-05-19T05:49:09;101264.47;;;10.42;81.99
74310;BME280;62722;51.142;17.052;2023-05-19T05:51:38;101272.25;;;10.45;81.80
74310;BME280;62722;51.142;17.052;2023-05-19T05:54:06;101269.75;;;10.42;81.75
74310;BME280;62722;51.142;17.052;2023-05-19T05:56:34;101266.81;;;10.48;81.84
74310;BME280;62722;51.142;17.052;2023-05-19T05:59:02;101261.16;;;10.56;82.13
74310;BME280;62722;51.142;17.052;2023-05-19T06:01:30;101256.44;;;10.62;81.40
74310;BME280;62722;51.142;17.052;2023-05-19T06:03:59;101260.53;;;10.68;81.66
74310;BME280;62722;51.142;17.052;2023-05-19T06:06:26;101267.38;;;10.72;81.58
74310;BME280;62722;51.142;17.052;2023-05-19T06:08:54;101266.69;;;10.68;81.36
74310;BME280;62722;51.142;17.052;2023-05-19T06:11:21;101257.84;;;10.69;81.68
74310;BME280;62722;51.142;17.052;2023-05-19T06:13:49;101271.50;;;10.78;81.72
74310;BME280;62722;51.142;17.052;2023-05-19T06:16:17;101282.38;;;10.71;81.51
74310;BME280;62722;51.142;17.052;2023-05-19T06:18:44;101281.38;;;10.74;81.45
74310;BME280;62722;51.142;17.052;2023-05-19T06:21:13;101284.72;;;10.78;81.58
74310;BME280;62722;51.142;17.052;2023-05-19T06:23:40;101280.91;;;10.83;81.98
74310;BME280;62722;51.142;17.052;2023-05-19T06:26:07;101285.19;;;10.86;81.77
74310;BME280;62722;51.142;17.052;2023-05-19T06:28:35;101285.50;;;10.97;81.91
74310;BME280;62722;51.142;17.052;2023-05-19T06:31:02;101285.94;;;11.05;82.04
74310;BME280;62722;51.142;17.052;2023-05-19T06:33:30;101282.38;;;11.06;81.75
74310;BME280;62722;51.142;17.052;2023-05-19T06:35:58;101284.16;;;11.05;82.32
74310;BME280;62722;51.142;17.052;2023-05-19T06:38:28;101292.19;;;11.04;82.00
74310;BME280;62722;51.142;17.052;2023-05-19T06:40:56;101287.66;;;11.06;82.21
74310;BME280;62722;51.142;17.052;2023-05-19T06:43:23;101291.22;;;11.05;82.27
74310;BME280;62722;51.142;17.052;2023-05-19T06:45:50;101288.69;;;11.03;82.10
74310;BME280;62722;51.142;17.052;2023-05-19T06:48:18;101288.75;;;11.02;81.99
74310;BME280;62722;51.142;17.052;2023-05-19T06:50:45;101290.53;;;11.01;82.21
74310;BME280;62722;51.142;17.052;2023-05-19T06:53:13;101292.19;;;11.04;82.04
74310;BME280;62722;51.142;17.052;2023-05-19T06:55:41;101287.13;;;10.99;81.46
74310;BME280;62722;51.142;17.052;2023-05-19T06:58:09;101291.38;;;11.02;81.73
74310;BME280;62722;51.142;17.052;2023-05-19T07:00:36;101291.22;;;11.05;82.32
74310;BME280;62722;51.142;17.052;2023-05-19T07:03:04;101285.81;;;11.08;82.13
74310;BME280;62722;51.142;17.052;2023-05-19T07:05:31;101292.72;;;11.10;81.91
74310;BME280;62722;51.142;17.052;2023-05-19T07:07:58;101296.44;;;11.06;81.49
74310;BME280;62722;51.142;17.052;2023-05-19T07:10:28;101298.06;;;11.09;81.59
74310;BME280;62722;51.142;17.052;2023-05-19T07:12:57;101303.22;;;11.12;80.97
74310;BME280;62722;51.142;17.052;2023-05-19T07:15:24;101301.25;;;11.15;81.29
74310;BME280;62722;51.142;17.052;2023-05-19T07:17:51;101297.75;;;11.15;81.26
74310;BME280;62722;51.142;17.052;2023-05-19T07:20:19;101294.16;;;11.16;80.91
74310;BME280;62722;51.142;17.052;2023-05-19T07:22:46;101297.44;;;11.21;81.14
74310;BME280;62722;51.142;17.052;2023-05-19T07:25:13;101299.91;;;11.24;80.97
74310;BME280;62722;51.142;17.052;2023-05-19T07:27:41;101302.38;;;11.27;81.26
74310;BME280;62722;51.142;17.052;2023-05-19T07:30:10;101306.00;;;11.26;80.37
74310;BME280;62722;51.142;17.052;2023-05-19T07:32:38;101293.78;;;11.23;80.66
74310;BME280;62722;51.142;17.052;2023-05-19T07:35:05;101296.28;;;11.27;81.24
74310;BME280;62722;51.142;17.052;2023-05-19T07:37:33;101309.41;;;11.28;80.93
74310;BME280;62722;51.142;17.052;2023-05-19T07:40:00;101296.81;;;11.33;81.96
74310;BME280;62722;51.142;17.052;2023-05-19T07:42:28;101298.25;;;11.39;81.02
74310;BME280;62722;51.142;17.052;2023-05-19T07:44:55;101289.09;;;11.29;80.63
74310;BME280;62722;51.142;17.052;2023-05-19T07:47:24;101295.25;;;11.29;81.20
74310;BME280;62722;51.142;17.052;2023-05-19T07:49:52;101301.56;;;11.27;81.04
74310;BME280;62722;51.142;17.052;2023-05-19T07:52:19;101304.09;;;11.28;81.65
74310;BME280;62722;51.142;17.052;2023-05-19T07:54:46;101303.19;;;11.29;82.66
74310;BME280;62722;51.142;17.052;2023-05-19T07:57:14;101311.19;;;11.28;82.29
74310;BME280;62722;51.142;17.052;2023-05-19T07:59:41;101299.00;;;11.25;81.98
74310;BME280;62722;51.142;17.052;2023-05-19T08:02:08;101303.66;;;11.20;81.87
74310;BME280;62722;51.142;17.052;2023-05-19T08:04:37;101309.94;;;11.17;82.66
74310;BME280;62722;51.142;17.052;2023-05-19T08:07:04;101303.66;;;11.20;82.94
74310;BME280;62722;51.142;17.052;2023-05-19T08:09:32;101308.69;;;11.24;83.83
74310;BME280;62722;51.142;17.052;2023-05-19T08:11:59;101302.25;;;11.30;84.08
74310;BME280;62722;51.142;17.052;2023-05-19T08:14:26;101304.63;;;11.35;83.13
74310;BME280;62722;51.142;17.052;2023-05-19T08:16:54;101294.00;;;11.36;83.19
74310;BME280;62722;51.142;17.052;2023-05-19T08:19:21;101292.03;;;11.40;83.90
74310;BME280;62722;51.142;17.052;2023-05-19T08:21:50;101294.63;;;11.41;82.57
74310;BME280;62722;51.142;17.052;2023-05-19T08:24:17;101294.06;;;11.52;81.76
74310;BME280;62722;51.142;17.052;2023-05-19T08:26:45;101296.47;;;11.56;80.64
74310;BME280;62722;51.142;17.052;2023-05-19T08:29:12;101289.22;;;11.60;80.47
74310;BME280;62722;51.142;17.052;2023-05-19T08:31:39;101294.56;;;11.58;79.96
74310;BME280;62722;51.142;17.052;2023-05-19T08:34:06;101300.13;;;11.69;79.84
74310;BME280;62722;51.142;17.052;2023-05-19T08:36:34;101299.84;;;11.76;78.56
74310;BME280;62722;51.142;17.052;2023-05-19T08:39:03;101303.34;;;11.76;78.69
74310;BME280;62722;51.142;17.052;2023-05-19T08:41:31;101301.38;;;11.80;78.53
74310;BME280;62722;51.142;17.052;2023-05-19T08:43:58;101298.97;;;11.75;78.36
74310;BME280;62722;51.142;17.052;2023-05-19T08:46:26;101297.28;;;11.74;78.23
74310;BME280;62722;51.142;17.052;2023-05-19T08:48:58;101283.81;;;11.79;77.72
74310;BME280;62722;51.142;17.052;2023-05-19T08:51:34;101287.66;;;11.89;77.11
74310;BME280;62722;51.142;17.052;2023-05-19T08:54:11;101287.84;;;11.86;77.26
74310;BME280;62722;51.142;17.052;2023-05-19T08:56:42;101288.50;;;11.74;77.92
74310;BME280;62722;51.142;17.052;2023-05-19T08:59:11;101286.38;;;11.80;78.40
74310;BME280;62722;51.142;17.052;2023-05-19T09:01:41;101292.97;;;11.89;77.71
74310;BME280;62722;51.142;17.052;2023-05-19T09:04:10;101292.78;;;11.92;77.42
74310;BME280;62722;51.142;17.052;2023-05-19T09:06:39;101292.44;;;11.98;77.63
74310;BME280;62722;51.142;17.052;2023-05-19T09:09:08;101289.47;;;12.04;77.32
74310;BME280;62722;51.142;17.052;2023-05-19T09:11:36;101285.34;;;11.98;75.88
74310;BME280;62722;51.142;17.052;2023-05-19T09:14:03;101294.16;;;11.99;75.84
74310;BME280;62722;51.142;17.052;2023-05-19T09:16:31;101291.94;;;12.07;76.47
74310;BME280;62722;51.142;17.052;2023-05-19T09:18:59;101294.84;;;12.18;75.92
74310;BME280;62722;51.142;17.052;2023-05-19T09:21:27;101289.38;;;12.21;75.13
74310;BME280;62722;51.142;17.052;2023-05-19T09:23:56;101293.75;;;12.22;74.95
74310;BME280;62722;51.142;17.052;2023-05-19T09:26:34;101288.44;;;12.22;75.02
74310;BME280;62722;51.142;17.052;2023-05-19T09:29:09;101288.75;;;12.16;75.26
74310;BME280;62722;51.142;17.052;2023-05-19T09:31:37;101286.72;;;12.21;75.19
74310;BME280;62722;51.142;17.052;2023-05-19T09:34:11;101287.91;;;12.31;77.90
74310;BME280;62722;51.142;17.052;2023-05-19T09:36:39;101284.94;;;12.22;79.33
74310;BME280;62722;51.142;17.052;2023-05-19T09:39:13;101273.84;;;12.15;77.30
74310;BME280;62722;51.142;17.052;2023-05-19T09:41:43;101272.88;;;12.16;76.83
74310;BME280;62722;51.142;17.052;2023-05-19T09:44:14;101275.78;;;12.27;77.10
74310;BME280;62722;51.142;17.052;2023-05-19T09:46:48;101274.34;;;12.37;76.47
74310;BME280;62722;51.142;17.052;2023-05-19T09:49:19;101274.75;;;12.45;76.62
74310;BME280;62722;51.142;17.052;2023-05-19T09:51:52;101273.25;;;12.41;75.70
74310;BME280;62722;51.142;17.052;2023-05-19T09:54:20;101268.69;;;12.43;76.52
74310;BME280;62722;51.142;17.052;2023-05-19T09:56:57;101275.75;;;12.58;75.91
74310;BME280;62722;51.142;17.052;2023-05-19T09:59:25;101263.78;;;12.67;75.14
74310;BME280;62722;51.142;17.052;2023-05-19T10:01:54;101266.47;;;12.81;75.58
74310;BME280;62722;51.142;17.052;2023-05-19T10:04:22;101262.63;;;13.01;75.19
74310;BME280;62722;51.142;17.052;2023-05-19T10:06:50;101257.31;;;13.01;73.95
74310;BME280;62722;51.142;17.052;2023-05-19T10:09:21;101247.97;;;12.95;74.09
74310;BME280;62722;51.142;17.052;2023-05-19T10:11:51;101251.06;;;12.88;73.32
74310;BME280;62722;51.142;17.052;2023-05-19T10:14:21;101255.31;;;12.90;73.61
74310;BME280;62722;51.142;17.052;2023-05-19T10:16:50;101261.88;;;12.99;73.90
74310;BME280;62722;51.142;17.052;2023-05-19T10:19:19;101251.00;;;13.03;73.70
74310;BME280;62722;51.142;17.052;2023-05-19T10:21:47;101247.50;;;13.03;73.34
74310;BME280;62722;51.142;17.052;2023-05-19T10:24:14;101249.94;;;12.92;73.45
74310;BME280;62722;51.142;17.052;2023-05-19T10:26:44;101251.47;;;12.96;74.21
74310;BME280;62722;51.142;17.052;2023-05-19T10:29:16;101247.66;;;12.86;74.21
74310;BME280;62722;51.142;17.052;2023-05-19T10:31:49;101253.06;;;12.98;73.46
74310;BME280;62722;51.142;17.052;2023-05-19T10:34:47;101244.66;;;12.92;73.31
74310;BME280;62722;51.142;17.052;2023-05-19T10:37:25;101244.44;;;12.95;73.74
74310;BME280;62722;51.142;17.052;2023-05-19T10:39:59;101240.22;;;13.06;74.00
74310;BME280;62722;51.142;17.052;2023-05-19T10:42:35;101238.94;;;13.13;73.22
74310;BME280;62722;51.142;17.052;2023-05-19T10:45:12;101241.81;;;12.95;73.52
74310;BME280;62722;51.142;17.052;2023-05-19T10:47:41;101240.75;;;12.97;73.87
74310;BME280;62722;51.142;17.052;2023-05-19T10:50:09;101251.00;;;13.03;73.90
74310;BME280;62722;51.142;17.052;2023-05-19T10:52:38;101245.31;;;12.95;73.33
74310;BME280;62722;51.142;17.052;2023-05-19T10:55:07;101250.22;;;12.87;74.06
74310;BME280;62722;51.142;17.052;2023-05-19T10:57:35;101247.81;;;12.83;74.51
74310;BME280;62722;51.142;17.052;2023-05-19T11:00:04;101253.97;;;12.83;75.02
74310;BME280;62722;51.142;17.052;2023-05-19T11:02:38;101260.72;;;12.89;74.89
74310;BME280;62722;51.142;17.052;2023-05-19T11:05:09;101251.59;;;12.79;74.40
74310;BME280;62722;51.142;17.052;2023-05-19T11:07:40;101243.66;;;12.79;75.78
74310;BME280;62722;51.142;17.052;2023-05-19T11:10:09;101248.94;;;12.79;77.45
74310;BME280;62722;51.142;17.052;2023-05-19T11:12:41;101256.28;;;12.59;79.76
74310;BME280;62722;51.142;17.052;2023-05-19T11:15:12;101258.09;;;12.43;80.13
74310;BME280;62722;51.142;17.052;2023-05-19T11:17:41;101254.09;;;12.36;82.29
74310;BME280;62722;51.142;17.052;2023-05-19T11:20:20;101247.81;;;12.23;82.17
74310;BME280;62722;51.142;17.052;2023-05-19T11:23:03;101247.03;;;12.21;82.90
74310;BME280;62722;51.142;17.052;2023-05-19T11:25:42;101248.50;;;12.27;83.39
74310;BME280;62722;51.142;17.052;2023-05-19T11:28:10;101244.03;;;12.27;83.91
74310;BME280;62722;51.142;17.052;2023-05-19T11:30:40;101241.13;;;12.32;82.63
74310;BME280;62722;51.142;17.052;2023-05-19T11:33:09;101243.88;;;12.30;82.19
74310;BME280;62722;51.142;17.052;2023-05-19T11:35:38;101243.88;;;12.30;82.42
74310;BME280;62722;51.142;17.052;2023-05-19T11:38:06;101246.53;;;12.30;81.66
74310;BME280;62722;51.142;17.052;2023-05-19T11:40:33;101239.88;;;12.23;80.64
74310;BME280;62722;51.142;17.052;2023-05-19T11:43:01;101242.16;;;12.29;81.97
74310;BME280;62722;51.142;17.052;2023-05-19T11:45:30;101245.56;;;12.31;81.07
74310;BME280;62722;51.142;17.052;2023-05-19T11:47:58;101240.09;;;12.34;81.12
74310;BME280;62722;51.142;17.052;2023-05-19T11:50:25;101243.69;;;12.33;80.08
74310;BME280;62722;51.142;17.052;2023-05-19T11:52:54;101248.81;;;12.36;79.81
74310;BME280;62722;51.142;17.052;2023-05-19T11:55:22;101248.44;;;12.42;79.94
74310;BME280;62722;51.142;17.052;2023-05-19T11:57:55;101246.22;;;12.50;79.88
74310;BME280;62722;51.142;17.052;2023-05-19T12:00:23;101242.72;;;12.50;78.95
74310;BME280;62722;51.142;17.052;2023-05-19T12:02:52;101249.78;;;12.49;79.35
74310;BME280;62722;51.142;17.052;2023-05-19T12:05:20;101246.88;;;12.54;79.10
74310;BME280;62722;51.142;17.052;2023-05-19T12:07:49;101244.34;;;12.52;79.08
74310;BME280;62722;51.142;17.052;2023-05-19T12:10:21;101244.34;;;12.52;79.25
74310;BME280;62722;51.142;17.052;2023-05-19T12:12:49;101244.25;;;12.54;79.13
74310;BME280;62722;51.142;17.052;2023-05-19T12:15:18;101245.16;;;12.53;79.39
74310;BME280;62722;51.142;17.052;2023-05-19T12:17:48;101242.44;;;12.54;79.10
74310;BME280;62722;51.142;17.052;2023-05-19T12:20:16;101243.56;;;12.50;78.68
74310;BME280;62722;51.142;17.052;2023-05-19T12:22:44;101240.91;;;12.50;78.69
74310;BME280;62722;51.142;17.052;2023-05-19T12:25:12;101239.72;;;12.56;78.56
74310;BME280;62722;51.142;17.052;2023-05-19T12:27:42;101237.56;;;12.62;78.47
74310;BME280;62722;51.142;17.052;2023-05-19T12:30:10;101246.06;;;12.67;78.17
74310;BME280;62722;51.142;17.052;2023-05-19T12:32:38;101242.84;;;12.62;77.96
74310;BME280;62722;51.142;17.052;2023-05-19T12:35:06;101240.56;;;12.56;77.89
74310;BME280;62722;51.142;17.052;2023-05-19T12:37:35;101248.22;;;12.61;78.74
74310;BME280;62722;51.142;17.052;2023-05-19T12:40:03;101246.69;;;12.57;78.38
74310;BME280;62722;51.142;17.052;2023-05-19T12:42:30;101246.38;;;12.63;78.64
74310;BME280;62722;51.142;17.052;2023-05-19T12:45:02;101241.75;;;12.66;78.88
74310;BME280;62722;51.142;17.052;2023-05-19T12:47:32;101252.66;;;12.60;77.46
74310;BME280;62722;51.142;17.052;2023-05-19T12:50:00;101242.97;;;12.45;77.96
74310;BME280;62722;51.142;17.052;2023-05-19T12:52:30;101241.47;;;12.41;78.06